createdAt,value
2018-06-25T00:02:22.906Z,93.40
2018-06-25T00:04:51.585Z,93.60
2018-06-25T00:07:20.092Z,94.20
2018-06-25T00:09:48.699Z,94.60
2018-06-25T00:12:17.442Z,95.50
2018-06-25T00:14:46.013Z,95.30
2018-06-25T00:26:12.063Z,95.70
2018-06-25T00:31:08.792Z,99.90
2018-06-25T00:42:16.419Z,99.90
2018-06-25T00:44:46.982Z,99.90
2018-06-25T01:06:23.426Z,99.90
2018-06-25T01:08:51.966Z,99.90
2018-06-25T01:13:48.653Z,99.90
2018-06-25T01:16:17.606Z,99.90
2018-06-25T01:18:46.731Z,99.90
2018-06-25T01:33:42.182Z,99.90
2018-06-25T01:36:10.799Z,99.90
2018-06-25T01:38:39.258Z,99.90
2018-06-25T01:41:07.834Z,99.90
2018-06-25T01:43:36.331Z,99.90
2018-06-25T01:46:05.094Z,99.90
2018-06-25T01:48:33.600Z,99.90
2018-06-25T01:51:03.551Z,99.90
2018-06-25T01:53:32.086Z,99.90
2018-06-25T01:58:28.735Z,99.90
2018-06-25T02:00:57.234Z,99.90
2018-06-25T02:03:25.719Z,99.90
2018-06-25T02:05:54.235Z,99.90
2018-06-25T02:08:22.746Z,99.90
2018-06-25T02:10:51.270Z,99.90
2018-06-25T02:13:19.823Z,99.90
2018-06-25T02:18:17.567Z,99.90
2018-06-25T02:20:46.436Z,99.90
2018-06-25T02:32:06.605Z,99.90
2018-06-25T02:34:35.064Z,99.90
2018-06-25T02:37:03.587Z,99.90
2018-06-25T02:39:32.110Z,99.90
2018-06-25T02:42:00.613Z,99.90
2018-06-25T02:44:29.212Z,99.90
2018-06-25T02:46:58.232Z,99.90
2018-06-25T02:49:26.696Z,99.90
2018-06-25T02:51:55.166Z,99.90
2018-06-25T02:54:23.725Z,99.90
2018-06-25T02:56:52.425Z,99.90
2018-06-25T02:59:21.062Z,99.90
2018-06-25T03:01:49.562Z,99.90
2018-06-25T03:04:18.063Z,99.90
2018-06-25T03:06:48.117Z,99.90
2018-06-25T03:09:17.499Z,99.90
2018-06-25T03:11:45.973Z,99.90
2018-06-25T03:34:54.243Z,99.90
2018-06-25T03:37:22.758Z,99.90
2018-06-25T03:39:51.237Z,99.90
2018-06-25T03:42:19.666Z,99.90
2018-06-25T03:44:48.187Z,99.90
2018-06-25T03:47:17.346Z,99.90
2018-06-25T03:49:45.844Z,99.90
2018-06-25T04:04:40.954Z,99.90
2018-06-25T04:09:37.734Z,99.90
2018-06-25T04:12:06.277Z,99.90
2018-06-25T04:14:34.759Z,99.90
2018-06-25T04:17:03.432Z,99.90
2018-06-25T04:19:31.892Z,99.90
2018-06-25T04:22:01.078Z,99.90
2018-06-25T04:24:30.127Z,99.90
2018-06-25T04:26:58.703Z,99.90
2018-06-25T04:31:55.510Z,99.90
2018-06-25T04:34:24.010Z,99.90
2018-06-25T04:36:52.670Z,99.90
2018-06-25T04:39:21.159Z,99.90
2018-06-25T04:41:49.739Z,99.90
2018-06-25T04:44:18.350Z,99.90
2018-06-25T04:46:46.925Z,99.90
2018-06-25T04:49:17.067Z,99.90
2018-06-25T04:51:46.183Z,99.90
2018-06-25T04:54:16.847Z,99.90
2018-06-25T04:56:45.399Z,99.90
2018-06-25T05:10:41.096Z,99.90
2018-06-25T05:13:09.580Z,99.90
2018-06-25T05:24:17.334Z,99.90
2018-06-25T05:26:46.979Z,99.90
2018-06-25T05:40:59.631Z,99.90
2018-06-25T05:43:28.133Z,99.90
2018-06-25T05:45:56.708Z,99.80
2018-06-25T05:48:25.227Z,99.50
2018-06-25T05:50:55.394Z,98.90
2018-06-25T05:53:23.901Z,98.20
2018-06-25T05:55:52.491Z,97.60
2018-06-25T05:58:20.959Z,95.30
2018-06-25T06:00:49.856Z,96.30
2018-06-25T06:03:18.399Z,96.30
2018-06-25T06:05:46.990Z,95.60
2018-06-25T06:08:17.980Z,93.40
2018-06-25T06:10:46.515Z,94.00
2018-06-25T06:25:47.659Z,92.60
2018-06-25T06:28:17.266Z,89.40
2018-06-25T06:30:45.827Z,90.00
2018-06-25T06:48:09.602Z,78.60
2018-06-25T06:59:17.954Z,77.80
2018-06-25T07:16:35.098Z,78.40
2018-06-25T07:19:03.628Z,78.90
2018-06-25T07:21:32.342Z,78.40
2018-06-25T07:24:00.831Z,77.30
2018-06-25T07:26:29.340Z,75.60
2018-06-25T07:28:58.288Z,77.60
2018-06-25T07:31:26.785Z,73.20
2018-06-25T07:33:55.376Z,69.50
2018-06-25T07:36:23.851Z,66.10
2018-06-25T07:38:52.510Z,62.30
2018-06-25T07:41:21.036Z,58.20
2018-06-25T07:43:49.498Z,51.20
2018-06-25T07:46:18.079Z,47.70
2018-06-25T07:48:47.903Z,43.90
2018-06-25T07:51:17.627Z,39.10
2018-06-25T07:53:46.119Z,35.50
2018-06-25T08:04:36.158Z,34.30
2018-06-25T08:07:04.675Z,35.40
2018-06-25T08:12:01.472Z,44.60
2018-06-25T08:14:29.982Z,47.10
2018-06-25T08:16:58.459Z,49.30
2018-06-25T08:19:27.032Z,51.90
2018-06-25T08:21:55.546Z,55.20
2018-06-25T08:24:24.158Z,58.10
2018-06-25T08:26:53.223Z,59.00
2018-06-25T08:29:22.632Z,62.20
2018-06-25T08:31:51.082Z,64.60
2018-06-25T08:34:19.696Z,63.30
2018-06-25T08:41:46.325Z,65.80
2018-06-25T08:44:16.390Z,65.40
2018-06-25T08:46:45.047Z,64.90
2018-06-25T08:49:14.541Z,62.50
2018-06-25T08:51:43.523Z,61.60
2018-06-25T08:54:11.986Z,57.30
2018-06-25T08:56:40.504Z,55.00
2018-06-25T08:59:09.264Z,54.80
2018-06-25T09:10:17.391Z,59.50
2018-06-25T09:12:45.898Z,61.10
2018-06-25T09:37:31.062Z,59.70
2018-06-25T09:39:59.626Z,55.60
2018-06-25T09:42:28.296Z,56.80
2018-06-25T09:44:57.008Z,58.50
2018-06-25T09:47:25.543Z,58.90
2018-06-25T09:49:54.047Z,58.80
2018-06-25T09:52:22.551Z,58.10
2018-06-25T09:54:51.430Z,59.60
2018-06-25T09:57:19.910Z,59.30
2018-06-25T09:59:48.408Z,60.70
2018-06-25T10:02:17.572Z,58.10
2018-06-25T10:04:46.348Z,60.10
2018-06-25T10:15:37.192Z,61.70
2018-06-25T10:18:05.802Z,61.60
2018-06-25T10:20:34.263Z,57.30
2018-06-25T10:23:02.901Z,56.90
2018-06-25T10:25:31.573Z,57.20
2018-06-25T10:28:00.102Z,56.10
2018-06-25T10:30:28.624Z,53.60
2018-06-25T10:32:57.130Z,55.40
2018-06-25T10:37:55.457Z,56.20
2018-06-25T10:42:52.534Z,56.70
2018-06-25T10:45:21.182Z,56.40
2018-06-25T10:47:49.876Z,54.60
2018-06-25T10:50:18.392Z,55.30
2018-06-25T10:52:46.911Z,56.60
2018-06-25T11:07:42.654Z,60.30
2018-06-25T11:10:11.191Z,55.50
2018-06-25T11:12:40.307Z,56.40
2018-06-25T11:15:09.001Z,55.10
2018-06-25T11:26:17.349Z,54.80
2018-06-25T11:41:06.979Z,54.50
2018-06-25T11:43:35.452Z,55.10
2018-06-25T11:46:04.049Z,54.90
2018-06-25T11:48:32.603Z,53.00
2018-06-25T11:51:01.159Z,52.50
2018-06-25T11:53:29.786Z,52.30
2018-06-25T11:55:58.536Z,53.30
2018-06-25T11:58:27.042Z,52.90
2018-06-25T12:00:55.943Z,52.60
2018-06-25T12:03:24.630Z,52.10
2018-06-25T12:05:53.196Z,50.00
2018-06-25T12:08:22.023Z,49.50
2018-06-25T12:10:50.583Z,49.90
2018-06-25T12:13:20.029Z,51.20
2018-06-25T12:15:51.231Z,50.60
2018-06-25T12:18:20.018Z,50.40
2018-06-25T12:20:48.525Z,52.90
2018-06-25T12:23:22.776Z,54.30
2018-06-25T12:25:51.347Z,52.50
2018-06-25T12:28:19.865Z,54.00
2018-06-25T12:30:48.553Z,54.70
2018-06-25T12:33:17.395Z,55.30
2018-06-25T12:35:46.132Z,54.10
2018-06-25T12:38:15.661Z,56.50
2018-06-25T12:40:44.144Z,54.70
2018-06-25T12:43:13.109Z,54.70
2018-06-25T12:45:42.002Z,55.20
2018-06-25T12:48:10.504Z,55.60
2018-06-25T12:50:40.000Z,54.00
2018-06-25T12:53:08.524Z,54.70
2018-06-25T12:55:37.006Z,53.70
2018-06-25T13:00:33.854Z,55.90
2018-06-25T13:03:03.591Z,54.90
2018-06-25T13:05:34.297Z,55.60
2018-06-25T13:08:02.882Z,56.60
2018-06-25T13:10:31.548Z,59.80
2018-06-25T13:13:00.395Z,58.40
2018-06-25T13:15:29.715Z,61.10
2018-06-25T13:17:58.160Z,59.60
2018-06-25T13:20:26.647Z,59.60
2018-06-25T13:22:55.115Z,59.90
2018-06-25T13:25:23.637Z,58.20
2018-06-25T13:27:52.660Z,58.50
2018-06-25T13:30:21.314Z,58.10
2018-06-25T13:32:49.916Z,57.80
2018-06-25T13:35:18.535Z,57.30
2018-06-25T13:37:47.052Z,58.10
2018-06-25T13:40:17.360Z,58.60
2018-06-25T13:42:45.999Z,59.80
2018-06-25T13:45:17.466Z,57.70
2018-06-25T13:47:46.183Z,57.20
2018-06-25T13:50:16.907Z,57.20
2018-06-25T13:52:45.442Z,55.80
2018-06-25T13:55:15.596Z,54.50
2018-06-25T13:57:44.205Z,52.70
2018-06-25T14:00:12.775Z,54.50
2018-06-25T14:02:41.247Z,54.50
2018-06-25T14:05:10.377Z,52.90
2018-06-25T14:07:38.890Z,53.00
2018-06-25T14:12:36.028Z,54.30
2018-06-25T14:15:05.303Z,54.00
2018-06-25T14:17:33.864Z,55.80
2018-06-25T14:20:04.641Z,54.80
2018-06-25T14:22:33.131Z,55.90
2018-06-25T14:25:02.316Z,55.70
2018-06-25T14:27:36.331Z,53.30
2018-06-25T14:30:10.427Z,51.20
2018-06-25T14:32:39.238Z,51.40
2018-06-25T14:35:13.135Z,52.60
2018-06-25T14:37:41.611Z,49.70
2018-06-25T14:40:10.163Z,50.00
2018-06-25T14:42:38.632Z,51.00
2018-06-25T14:45:07.359Z,49.90
2018-06-25T14:47:35.959Z,49.90
2018-06-25T14:50:04.836Z,48.80
2018-06-25T14:52:34.074Z,50.30
2018-06-25T14:55:02.586Z,50.20
2018-06-25T14:57:32.129Z,49.50
2018-06-25T15:00:00.695Z,50.40
2018-06-25T15:02:29.910Z,52.70
2018-06-25T15:04:58.507Z,51.70
2018-06-25T15:07:27.027Z,52.00
2018-06-25T15:12:23.655Z,51.80
2018-06-25T15:14:52.651Z,52.80
2018-06-25T15:17:21.214Z,54.00
2018-06-25T15:19:49.718Z,52.10
2018-06-25T15:22:18.250Z,51.20
2018-06-25T15:24:46.751Z,51.20
2018-06-25T15:27:16.575Z,52.20
2018-06-25T15:29:45.158Z,53.90
2018-06-25T15:32:14.633Z,53.10
2018-06-25T15:34:43.117Z,53.10
2018-06-25T15:37:11.727Z,53.40
2018-06-25T15:39:40.218Z,54.10
2018-06-25T15:42:08.716Z,55.40
2018-06-25T15:50:17.466Z,55.50
2018-06-25T15:55:15.328Z,55.10
2018-06-25T15:57:43.867Z,53.60
2018-06-25T16:00:12.441Z,51.70
2018-06-25T16:02:40.963Z,54.40
2018-06-25T16:05:09.880Z,53.80
2018-06-25T16:07:38.481Z,53.00
2018-06-25T16:10:07.041Z,53.90
2018-06-25T16:12:35.540Z,53.60
2018-06-25T16:15:04.103Z,55.00
2018-06-25T16:17:33.978Z,54.00
2018-06-25T16:20:03.045Z,52.80
2018-06-25T16:22:31.535Z,54.30
2018-06-25T16:25:01.049Z,55.30
2018-06-25T16:27:29.598Z,54.70
2018-06-25T16:29:59.959Z,53.60
2018-06-25T16:32:28.604Z,54.80
2018-06-25T16:34:57.780Z,52.80
2018-06-25T16:37:26.401Z,52.30
2018-06-25T16:39:55.959Z,54.00
2018-06-25T16:42:25.985Z,55.10
2018-06-25T16:47:22.745Z,53.00
2018-06-25T16:49:51.353Z,56.20
2018-06-25T16:52:20.858Z,54.80
2018-06-25T16:54:49.417Z,55.30
2018-06-25T16:59:46.297Z,55.70
2018-06-25T17:26:05.850Z,57.70
2018-06-25T17:28:34.453Z,56.40
2018-06-25T17:31:03.446Z,56.10
2018-06-25T17:45:02.896Z,58.40
2018-06-25T17:47:31.474Z,58.50
2018-06-25T17:50:00.147Z,59.30
2018-06-25T17:52:29.573Z,60.00
2018-06-25T17:54:58.135Z,59.50
2018-06-25T17:59:54.821Z,60.30
2018-06-25T18:02:23.359Z,60.20
2018-06-25T18:04:51.905Z,60.70
2018-06-25T18:07:20.574Z,61.10
2018-06-25T18:09:49.437Z,61.40
2018-06-25T18:12:18.277Z,61.70
2018-06-25T18:14:47.046Z,62.70
2018-06-25T18:17:17.695Z,62.10
2018-06-25T18:19:46.276Z,62.10
2018-06-25T18:22:16.454Z,62.60
2018-06-25T18:24:45.039Z,63.40
2018-06-25T18:27:13.532Z,63.20
2018-06-25T18:29:41.999Z,63.20
2018-06-25T18:32:10.539Z,63.50
2018-06-25T18:34:39.172Z,63.80
2018-06-25T18:37:07.755Z,63.30
2018-06-25T18:39:36.873Z,62.90
2018-06-25T18:42:05.454Z,63.40
2018-06-25T18:44:34.125Z,64.20
2018-06-25T18:47:03.567Z,64.20
2018-06-25T18:49:37.550Z,64.40
2018-06-25T18:52:06.443Z,64.60
2018-06-25T18:54:35.758Z,64.80
2018-06-25T18:57:04.344Z,65.20
2018-06-25T18:59:33.850Z,65.70
2018-06-25T19:02:02.691Z,66.00
2018-06-25T19:04:31.423Z,66.90
2018-06-25T19:06:59.983Z,66.80
2018-06-25T19:09:30.891Z,67.20
2018-06-25T19:11:59.609Z,67.10
2018-06-25T19:14:28.151Z,67.30
2018-06-25T19:16:56.832Z,67.80
2018-06-25T19:19:25.382Z,68.10
2018-06-25T19:21:55.714Z,68.90
2018-06-25T19:24:24.370Z,69.30
2018-06-25T19:26:53.423Z,69.90
2018-06-25T19:29:24.555Z,70.70
2018-06-25T19:31:53.531Z,70.60
2018-06-25T19:34:22.176Z,71.20
2018-06-25T19:36:50.744Z,72.50
2018-06-25T19:39:19.448Z,72.40
2018-06-25T19:41:47.907Z,73.60
2018-06-25T19:44:17.867Z,73.80
2018-06-25T19:46:46.589Z,73.50
2018-06-25T19:49:16.513Z,73.80
2018-06-25T19:51:45.171Z,74.20
2018-06-25T19:54:14.698Z,74.70
2018-06-25T19:56:45.047Z,75.00
2018-06-25T19:59:19.654Z,75.00
2018-06-25T20:01:48.156Z,75.00
2018-06-25T20:04:17.482Z,75.60
2018-06-25T20:06:46.253Z,75.20
2018-06-25T20:09:16.535Z,76.00
2018-06-25T20:11:45.211Z,76.00
2018-06-25T20:14:14.698Z,76.00
2018-06-25T20:16:43.256Z,76.70
2018-06-25T20:19:11.774Z,77.50
2018-06-25T20:24:10.225Z,79.00
2018-06-25T20:32:24.974Z,82.10
2018-06-25T20:34:53.606Z,82.00
2018-06-25T20:37:22.155Z,82.90
2018-06-25T20:42:19.792Z,84.50
2018-06-25T20:44:48.264Z,85.60
2018-06-25T20:47:17.594Z,85.50
2018-06-25T20:49:46.095Z,86.10
2018-06-25T20:52:16.452Z,86.40
2018-06-25T20:54:45.016Z,87.00
2018-06-25T20:59:43.709Z,88.00
2018-06-25T21:02:13.037Z,88.50
2018-06-25T21:04:41.666Z,88.20
2018-06-25T21:07:10.274Z,88.30
2018-06-25T21:09:38.828Z,87.80
2018-06-25T21:12:07.327Z,87.90
2018-06-25T21:14:35.826Z,88.30
2018-06-25T21:17:04.422Z,88.60
2018-06-25T21:19:36.230Z,88.70
2018-06-25T21:24:32.995Z,89.50
2018-06-25T21:29:29.758Z,89.60
2018-06-25T21:31:58.252Z,89.90
2018-06-25T21:34:26.846Z,90.30
2018-06-25T21:36:55.811Z,90.20
2018-06-25T21:41:52.624Z,90.80
2018-06-25T21:44:21.231Z,91.00
2018-06-25T21:46:50.186Z,91.00
2018-06-25T21:49:18.726Z,91.00
2018-06-25T21:51:47.219Z,91.10
2018-06-25T21:54:17.463Z,91.40
2018-06-25T21:56:45.976Z,91.40
2018-06-25T21:59:16.366Z,91.50
2018-06-25T22:01:49.507Z,91.70
2018-06-25T22:04:17.994Z,91.60
2018-06-25T22:06:46.469Z,91.90
2018-06-25T22:09:16.639Z,91.90
2018-06-25T22:11:45.266Z,92.10
2018-06-25T22:14:14.695Z,92.00
2018-06-25T22:16:43.791Z,92.30
2018-06-25T22:19:12.339Z,92.00
2018-06-25T22:21:41.048Z,92.10
2018-06-25T22:26:37.746Z,92.10
2018-06-25T22:29:06.855Z,92.30
2018-06-25T22:31:36.355Z,92.70
2018-06-25T22:34:05.143Z,93.10
2018-06-25T22:36:33.856Z,93.50
2018-06-25T22:39:02.472Z,93.80
2018-06-25T22:41:30.950Z,94.40
2018-06-25T22:44:09.560Z,94.30
2018-06-25T22:49:07.526Z,95.00
2018-06-25T22:51:36.614Z,94.90
2018-06-25T22:54:05.910Z,95.20
2018-06-25T22:56:34.667Z,95.30
2018-06-25T22:59:03.338Z,95.40
2018-06-25T23:01:32.759Z,95.50
2018-06-25T23:04:01.247Z,95.40
2018-06-25T23:06:30.218Z,95.60
2018-06-25T23:08:59.531Z,96.00
2018-06-25T23:11:28.060Z,95.80
2018-06-25T23:13:57.815Z,95.90
2018-06-25T23:16:26.278Z,96.30
2018-06-25T23:18:54.858Z,96.50
2018-06-25T23:21:23.383Z,96.70
2018-06-25T23:23:51.887Z,97.00
2018-06-25T23:26:20.359Z,97.40
2018-06-25T23:28:48.869Z,97.80
2018-06-25T23:31:17.354Z,98.30
2018-06-25T23:36:15.399Z,98.80
2018-06-25T23:38:43.868Z,99.20
2018-06-25T23:41:12.395Z,99.30
2018-06-25T23:43:40.954Z,99.30
2018-06-25T23:46:09.475Z,99.50
2018-06-25T23:48:37.954Z,99.70
2018-06-25T23:51:06.464Z,99.90
2018-06-25T23:53:34.955Z,99.90
2018-06-25T23:56:03.504Z,99.90
2018-06-25T23:58:32.435Z,99.90
